Impacts METAR Board INFO
IDs:

KMCO - Orlando Intl, FL, US

Updated at: 0723 UTC 11 Dec 2017
Potential Impact None Slight Moderate High
Time10/19Z 10/20Z 10/21Z 10/22Z 10/23Z 11/00Z 11/01Z 11/02Z 11/03Z 11/04Z 11/05Z 11/06Z 11/07Z
VIS10 10 10 10 10 10 10 10 10 10 10 10 10
CIG-- -- -- -- -- -- -- -- -- -- -- -- --
CoverCLRCLRCLRCLRCLRCLRCLRCLRCLRCLRFEWCLRCLR
FltCatVFRVFRVFRVFRVFRVFRVFRVFRVFRVFRVFRVFRVFR
WX--------------------------
WDir320310300300310340320300290280300290300
WSpd11 8 9 10 9 3 3 5 6 4 6 7 7
WGst-- -- -- -- -- -- -- -- -- -- -- -- --
Raw hourly METARs
KMCO 101853Z 32011KT 10SM CLR 15/M07 A3026
KMCO 101953Z 31008KT 10SM CLR 15/M07 A3026
KMCO 102053Z 30009KT 10SM CLR 16/M04 A3026
KMCO 102153Z 30010KT 10SM CLR 13/M06 A3027
KMCO 102253Z 31009KT 10SM CLR 13/M05 A3028
KMCO 102353Z 34003KT 10SM CLR 15/M03 A3029
KMCO 110053Z 32003KT 10SM CLR 16/M03 A3031
KMCO 110153Z 30005KT 10SM CLR 06/00 A3031
KMCO 110253Z 29006KT 10SM CLR 07/01 A3033
KMCO 110353Z 28004KT 10SM CLR 04/01 A3033
KMCO 110453Z 30006KT 10SM FEW250 04/03 A3032
KMCO 110553Z 29007KT 10SM CLR 04/04 A3031
KMCO 110653Z 30007KT 10SM CLR 05/03 A3030